sensor_id;sensor_type;location;lat;lon;timestamp;pressure;altitude;pressure_sealevel;temperature;humidity
6024;BME280;3040;42.654;23.296;2023-08-30T00:01:22;93396.47;;;23.49;81.18
6024;BME280;3040;42.654;23.296;2023-08-30T00:03:49;93389.97;;;23.21;81.25
6024;BME280;3040;42.654;23.296;2023-08-30T00:06:15;93358.72;;;23.29;83.13
6024;BME280;3040;42.654;23.296;2023-08-30T00:08:42;93380.47;;;23.04;78.32
6024;BME280;3040;42.654;23.296;2023-08-30T00:11:10;93383.09;;;22.95;81.41
6024;BME280;3040;42.654;23.296;2023-08-30T00:13:37;93393.53;;;22.96;80.14
6024;BME280;3040;42.654;23.296;2023-08-30T00:16:04;93402.06;;;23.07;80.60
6024;BME280;3040;42.654;23.296;2023-08-30T00:18:31;93397.19;;;22.52;69.77
6024;BME280;3040;42.654;23.296;2023-08-30T00:20:57;93294.88;;;22.05;72.15
6024;BME280;3040;42.654;23.296;2023-08-30T00:23:24;93393.53;;;22.84;72.68
6024;BME280;3040;42.654;23.296;2023-08-30T00:25:51;93385.47;;;23.05;72.90
6024;BME280;3040;42.654;23.296;2023-08-30T00:28:19;93377.44;;;23.15;68.42
6024;BME280;3040;42.654;23.296;2023-08-30T00:30:46;93378.22;;;22.52;67.32
6024;BME280;3040;42.654;23.296;2023-08-30T00:33:13;93377.63;;;22.06;67.78
6024;BME280;3040;42.654;23.296;2023-08-30T00:35:40;93361.38;;;21.77;68.58
6024;BME280;3040;42.654;23.296;2023-08-30T00:38:06;93382.00;;;22.29;69.18
6024;BME280;3040;42.654;23.296;2023-08-30T00:40:38;93372.44;;;21.99;67.85
6024;BME280;3040;42.654;23.296;2023-08-30T00:43:05;93377.81;;;21.70;69.19
6024;BME280;3040;42.654;23.296;2023-08-30T00:45:34;93352.88;;;21.50;70.06
6024;BME280;3040;42.654;23.296;2023-08-30T00:48:05;93361.88;;;21.60;70.27
6024;BME280;3040;42.654;23.296;2023-08-30T00:50:32;93352.41;;;21.39;70.50
6024;BME280;3040;42.654;23.296;2023-08-30T00:52:59;93391.16;;;21.48;70.70
6024;BME280;3040;42.654;23.296;2023-08-30T00:55:30;93396.38;;;21.27;71.89
6024;BME280;3040;42.654;23.296;2023-08-30T00:57:58;93328.19;;;21.19;74.23
6024;BME280;3040;42.654;23.296;2023-08-30T01:00:25;93395.97;;;21.86;72.41
6024;BME280;3040;42.654;23.296;2023-08-30T01:02:54;93387.78;;;22.02;73.17
6024;BME280;3040;42.654;23.296;2023-08-30T01:05:21;93368.88;;;22.15;71.63
6024;BME280;3040;42.654;23.296;2023-08-30T01:07:49;93385.13;;;21.86;69.75
6024;BME280;3040;42.654;23.296;2023-08-30T01:10:16;93390.84;;;21.75;69.99
6024;BME280;3040;42.654;23.296;2023-08-30T01:12:45;93393.78;;;21.52;71.31
6024;BME280;3040;42.654;23.296;2023-08-30T01:15:15;93355.56;;;21.21;71.45
6024;BME280;3040;42.654;23.296;2023-08-30T01:17:47;93374.66;;;21.14;70.55
6024;BME280;3040;42.654;23.296;2023-08-30T01:20:17;93429.25;;;21.25;71.56
6024;BME280;3040;42.654;23.296;2023-08-30T01:22:55;93279.75;;;20.31;71.81
6024;BME280;3040;42.654;23.296;2023-08-30T01:25:30;93407.59;;;21.09;71.55
6024;BME280;3040;42.654;23.296;2023-08-30T01:28:03;93405.38;;;21.04;71.26
6024;BME280;3040;42.654;23.296;2023-08-30T01:30:32;93395.94;;;21.28;71.23
6024;BME280;3040;42.654;23.296;2023-08-30T01:33:00;93393.56;;;21.30;70.89
6024;BME280;3040;42.654;23.296;2023-08-30T01:35:28;93406.56;;;21.35;69.50
6024;BME280;3040;42.654;23.296;2023-08-30T01:37:58;93401.53;;;21.21;69.81
6024;BME280;3040;42.654;23.296;2023-08-30T01:40:27;93392.44;;;21.44;68.83
6024;BME280;3040;42.654;23.296;2023-08-30T01:42:55;93408.81;;;21.69;68.16
6024;BME280;3040;42.654;23.296;2023-08-30T01:45:24;93359.69;;;21.55;67.74
6024;BME280;3040;42.654;23.296;2023-08-30T01:47:53;93272.75;;;21.27;66.86
6024;BME280;3040;42.654;23.296;2023-08-30T01:50:21;93401.19;;;22.47;66.56
6024;BME280;3040;42.654;23.296;2023-08-30T01:52:48;93392.53;;;22.65;66.22
6024;BME280;3040;42.654;23.296;2023-08-30T01:55:18;93404.25;;;22.87;65.58
6024;BME280;3040;42.654;23.296;2023-08-30T01:57:46;93414.00;;;23.10;64.95
6024;BME280;3040;42.654;23.296;2023-08-30T02:00:14;93404.47;;;23.05;62.67
6024;BME280;3040;42.654;23.296;2023-08-30T02:02:42;93397.00;;;22.84;63.21
6024;BME280;3040;42.654;23.296;2023-08-30T02:05:09;93402.94;;;23.04;64.43
6024;BME280;3040;42.654;23.296;2023-08-30T02:07:42;93399.22;;;23.24;66.53
6024;BME280;3040;42.654;23.296;2023-08-30T02:10:12;93371.69;;;22.37;67.41
6024;BME280;3040;42.654;23.296;2023-08-30T02:12:47;93392.53;;;22.40;69.14
6024;BME280;3040;42.654;23.296;2023-08-30T02:15:15;93393.50;;;22.46;69.33
6024;BME280;3040;42.654;23.296;2023-08-30T02:17:45;93391.41;;;22.12;65.55
6024;BME280;3040;42.654;23.296;2023-08-30T02:20:12;93395.88;;;22.44;66.29
6024;BME280;3040;42.654;23.296;2023-08-30T02:22:39;93387.75;;;22.56;66.98
6024;BME280;3040;42.654;23.296;2023-08-30T02:25:06;93355.44;;;22.37;61.84
6024;BME280;3040;42.654;23.296;2023-08-30T02:27:33;93387.91;;;22.78;68.13
6024;BME280;3040;42.654;23.296;2023-08-30T02:30:00;93387.13;;;22.90;67.64
6024;BME280;3040;42.654;23.296;2023-08-30T02:32:28;93366.06;;;22.69;69.36
6024;BME280;3040;42.654;23.296;2023-08-30T02:34:56;93381.16;;;22.95;69.61
6024;BME280;3040;42.654;23.296;2023-08-30T02:37:23;93380.94;;;22.52;69.27
6024;BME280;3040;42.654;23.296;2023-08-30T02:39:50;93356.72;;;22.19;69.90
6024;BME280;3040;42.654;23.296;2023-08-30T02:42:17;93397.84;;;22.56;70.70
6024;BME280;3040;42.654;23.296;2023-08-30T02:44:44;93396.88;;;22.62;70.81
6024;BME280;3040;42.654;23.296;2023-08-30T02:47:11;93397.53;;;22.66;70.44
6024;BME280;3040;42.654;23.296;2023-08-30T02:49:37;93389.94;;;22.74;70.19
6024;BME280;3040;42.654;23.296;2023-08-30T02:52:06;93383.22;;;22.66;67.26
6024;BME280;3040;42.654;23.296;2023-08-30T02:54:33;93362.94;;;22.58;67.58
6024;BME280;3040;42.654;23.296;2023-08-30T02:57:00;93379.81;;;22.11;66.31
6024;BME280;3040;42.654;23.296;2023-08-30T02:59:26;93365.38;;;21.73;67.69
6024;BME280;3040;42.654;23.296;2023-08-30T03:01:53;93367.34;;;22.14;69.14
6024;BME280;3040;42.654;23.296;2023-08-30T03:04:20;93373.53;;;22.14;66.32
6024;BME280;3040;42.654;23.296;2023-08-30T03:06:47;93378.09;;;22.17;66.47
6024;BME280;3040;42.654;23.296;2023-08-30T03:09:15;93372.91;;;22.36;66.68
6024;BME280;3040;42.654;23.296;2023-08-30T03:11:42;93364.00;;;22.22;65.98
6024;BME280;3040;42.654;23.296;2023-08-30T03:14:09;93391.13;;;22.48;65.62
6024;BME280;3040;42.654;23.296;2023-08-30T03:16:35;93378.78;;;22.47;66.93
6024;BME280;3040;42.654;23.296;2023-08-30T03:19:02;93380.06;;;22.55;68.75
6024;BME280;3040;42.654;23.296;2023-08-30T03:21:29;93257.13;;;21.73;68.75
6024;BME280;3040;42.654;23.296;2023-08-30T03:23:56;93387.66;;;22.60;68.72
6024;BME280;3040;42.654;23.296;2023-08-30T03:26:26;93369.88;;;22.59;68.08
6024;BME280;3040;42.654;23.296;2023-08-30T03:28:53;93379.06;;;22.61;68.02
6024;BME280;3040;42.654;23.296;2023-08-30T03:31:21;93371.91;;;22.55;66.92
6024;BME280;3040;42.654;23.296;2023-08-30T03:33:49;93228.09;;;21.48;66.72
6024;BME280;3040;42.654;23.296;2023-08-30T03:36:16;93371.38;;;22.35;67.35
6024;BME280;3040;42.654;23.296;2023-08-30T03:38:45;93356.94;;;22.12;67.12
6024;BME280;3040;42.654;23.296;2023-08-30T03:41:12;93353.13;;;21.97;67.44
6024;BME280;3040;42.654;23.296;2023-08-30T03:43:40;93356.53;;;21.85;67.52
6024;BME280;3040;42.654;23.296;2023-08-30T03:46:07;93359.91;;;21.89;67.31
6024;BME280;3040;42.654;23.296;2023-08-30T03:48:34;93362.84;;;21.82;67.27
6024;BME280;3040;42.654;23.296;2023-08-30T03:51:01;93367.38;;;21.85;67.22
6024;BME280;3040;42.654;23.296;2023-08-30T03:53:28;93374.13;;;21.93;67.07
6024;BME280;3040;42.654;23.296;2023-08-30T03:55:55;93322.53;;;21.42;66.86
6024;BME280;3040;42.654;23.296;2023-08-30T04:00:50;93231.06;;;20.51;67.89
6024;BME280;3040;42.654;23.296;2023-08-30T04:03:17;93379.63;;;21.61;67.35
6024;BME280;3040;42.654;23.296;2023-08-30T04:05:43;93398.13;;;21.91;67.04
6024;BME280;3040;42.654;23.296;2023-08-30T04:08:10;93397.28;;;21.94;66.73
6024;BME280;3040;42.654;23.296;2023-08-30T04:10:38;93370.47;;;22.12;66.23
6024;BME280;3040;42.654;23.296;2023-08-30T04:13:05;93388.28;;;22.39;67.64
6024;BME280;3040;42.654;23.296;2023-08-30T04:15:33;93380.38;;;22.44;66.80
6024;BME280;3040;42.654;23.296;2023-08-30T04:18:02;93404.56;;;22.64;65.93
6024;BME280;3040;42.654;23.296;2023-08-30T04:20:28;93403.28;;;22.81;66.81
6024;BME280;3040;42.654;23.296;2023-08-30T04:22:55;93403.72;;;22.92;64.44
6024;BME280;3040;42.654;23.296;2023-08-30T04:25:23;93410.31;;;22.53;64.25
6024;BME280;3040;42.654;23.296;2023-08-30T04:27:50;93421.53;;;22.26;65.32
6024;BME280;3040;42.654;23.296;2023-08-30T04:30:17;93429.06;;;22.06;66.25
6024;BME280;3040;42.654;23.296;2023-08-30T04:32:44;93431.31;;;22.24;67.58
6024;BME280;3040;42.654;23.296;2023-08-30T04:35:12;93441.50;;;22.32;63.87
6024;BME280;3040;42.654;23.296;2023-08-30T04:37:39;93445.47;;;22.15;65.64
6024;BME280;3040;42.654;23.296;2023-08-30T04:40:06;93419.94;;;22.42;65.53
6024;BME280;3040;42.654;23.296;2023-08-30T04:42:34;93453.06;;;22.75;62.35
6024;BME280;3040;42.654;23.296;2023-08-30T04:45:01;93456.63;;;22.97;61.59
6024;BME280;3040;42.654;23.296;2023-08-30T04:47:28;93452.09;;;23.06;61.49
6024;BME280;3040;42.654;23.296;2023-08-30T04:49:55;93434.50;;;22.98;60.35
6024;BME280;3040;42.654;23.296;2023-08-30T04:52:24;93437.75;;;23.19;60.02
6024;BME280;3040;42.654;23.296;2023-08-30T04:54:51;93448.06;;;22.98;60.28
6024;BME280;3040;42.654;23.296;2023-08-30T04:57:17;93446.72;;;22.52;58.47
6024;BME280;3040;42.654;23.296;2023-08-30T04:59:45;93445.09;;;22.01;59.06
6024;BME280;3040;42.654;23.296;2023-08-30T05:02:12;93416.50;;;21.83;59.84
6024;BME280;3040;42.654;23.296;2023-08-30T05:04:39;93448.75;;;21.49;60.73
6024;BME280;3040;42.654;23.296;2023-08-30T05:07:06;93440.91;;;21.22;62.02
6024;BME280;3040;42.654;23.296;2023-08-30T05:09:34;93443.09;;;21.43;62.52
6024;BME280;3040;42.654;23.296;2023-08-30T05:12:01;93456.19;;;21.12;63.27
6024;BME280;3040;42.654;23.296;2023-08-30T05:14:28;93432.78;;;21.06;61.41
6024;BME280;3040;42.654;23.296;2023-08-30T05:16:55;93435.41;;;21.26;62.42
6024;BME280;3040;42.654;23.296;2023-08-30T05:19:21;93431.38;;;21.34;60.84
6024;BME280;3040;42.654;23.296;2023-08-30T05:21:48;93445.44;;;21.41;61.14
6024;BME280;3040;42.654;23.296;2023-08-30T05:24:16;93440.75;;;21.74;61.98
6024;BME280;3040;42.654;23.296;2023-08-30T05:26:45;93307.13;;;21.27;62.61
6024;BME280;3040;42.654;23.296;2023-08-30T05:29:13;93446.72;;;22.40;62.27
6024;BME280;3040;42.654;23.296;2023-08-30T05:31:40;93449.00;;;22.54;61.29
6024;BME280;3040;42.654;23.296;2023-08-30T05:34:07;93457.50;;;22.81;60.21
6024;BME280;3040;42.654;23.296;2023-08-30T05:36:34;93447.97;;;23.02;59.37
6024;BME280;3040;42.654;23.296;2023-08-30T05:39:00;93461.38;;;23.31;58.27
6024;BME280;3040;42.654;23.296;2023-08-30T05:41:28;93454.72;;;23.57;57.16
6024;BME280;3040;42.654;23.296;2023-08-30T05:43:56;93454.34;;;23.80;56.91
6024;BME280;3040;42.654;23.296;2023-08-30T05:46:23;93456.31;;;24.02;56.21
6024;BME280;3040;42.654;23.296;2023-08-30T05:48:50;93458.00;;;24.21;55.47
6024;BME280;3040;42.654;23.296;2023-08-30T05:51:17;93454.50;;;24.42;54.56
6024;BME280;3040;42.654;23.296;2023-08-30T05:53:45;93454.31;;;24.58;53.66
6024;BME280;3040;42.654;23.296;2023-08-30T05:56:12;93440.56;;;24.62;54.04
6024;BME280;3040;42.654;23.296;2023-08-30T05:58:39;93456.97;;;24.80;54.17
6024;BME280;3040;42.654;23.296;2023-08-30T06:01:07;93461.28;;;24.90;53.19
6024;BME280;3040;42.654;23.296;2023-08-30T06:03:34;93451.16;;;24.91;52.27
6024;BME280;3040;42.654;23.296;2023-08-30T06:06:00;93456.81;;;25.05;51.16
6024;BME280;3040;42.654;23.296;2023-08-30T06:08:28;93453.41;;;25.23;51.36
6024;BME280;3040;42.654;23.296;2023-08-30T06:10:55;93454.03;;;25.36;51.58
6024;BME280;3040;42.654;23.296;2023-08-30T06:13:22;93449.81;;;25.44;51.67
6024;BME280;3040;42.654;23.296;2023-08-30T06:15:50;93453.88;;;24.91;51.12
6024;BME280;3040;42.654;23.296;2023-08-30T06:18:19;93443.31;;;24.93;51.27
6024;BME280;3040;42.654;23.296;2023-08-30T06:20:48;93379.38;;;24.57;50.43
6024;BME280;3040;42.654;23.296;2023-08-30T06:23:18;93453.56;;;25.29;51.08
6024;BME280;3040;42.654;23.296;2023-08-30T06:25:52;93457.38;;;25.40;51.46
6024;BME280;3040;42.654;23.296;2023-08-30T06:28:20;93441.47;;;25.39;51.91
6024;BME280;3040;42.654;23.296;2023-08-30T06:30:46;93457.00;;;25.60;49.18
6024;BME280;3040;42.654;23.296;2023-08-30T06:33:13;93433.50;;;25.53;48.58
6024;BME280;3040;42.654;23.296;2023-08-30T06:35:41;93433.22;;;25.70;49.48
6024;BME280;3040;42.654;23.296;2023-08-30T06:38:11;93462.75;;;25.99;47.87
6024;BME280;3040;42.654;23.296;2023-08-30T06:40:43;93468.06;;;25.93;48.33
6024;BME280;3040;42.654;23.296;2023-08-30T06:43:10;93469.25;;;26.10;49.42
6024;BME280;3040;42.654;23.296;2023-08-30T06:45:37;93461.41;;;26.21;46.92
6024;BME280;3040;42.654;23.296;2023-08-30T06:48:05;93337.00;;;25.64;47.64
6024;BME280;3040;42.654;23.296;2023-08-30T06:50:32;93464.34;;;26.78;47.35
6024;BME280;3040;42.654;23.296;2023-08-30T06:53:00;93431.59;;;26.78;46.67
6024;BME280;3040;42.654;23.296;2023-08-30T06:55:27;93464.50;;;27.26;45.02
6024;BME280;3040;42.654;23.296;2023-08-30T06:57:55;93387.91;;;26.96;44.98
6024;BME280;3040;42.654;23.296;2023-08-30T07:00:22;93447.28;;;27.67;44.94
6024;BME280;3040;42.654;23.296;2023-08-30T07:02:48;93462.69;;;27.79;44.57
6024;BME280;3040;42.654;23.296;2023-08-30T07:05:15;93467.03;;;27.71;45.71
6024;BME280;3040;42.654;23.296;2023-08-30T07:07:42;93465.38;;;27.88;44.54
6024;BME280;3040;42.654;23.296;2023-08-30T07:10:10;93463.63;;;28.00;43.57
6024;BME280;3040;42.654;23.296;2023-08-30T07:12:37;93463.41;;;28.27;43.15
6024;BME280;3040;42.654;23.296;2023-08-30T07:15:05;93457.13;;;28.36;42.46
6024;BME280;3040;42.654;23.296;2023-08-30T07:17:32;93463.03;;;28.20;41.55
6024;BME280;3040;42.654;23.296;2023-08-30T07:19:59;93463.44;;;28.42;42.00
6024;BME280;3040;42.654;23.296;2023-08-30T07:22:26;93464.00;;;28.46;42.47
6024;BME280;3040;42.654;23.296;2023-08-30T07:24:53;93464.75;;;28.32;41.75
6024;BME280;3040;42.654;23.296;2023-08-30T07:27:21;93465.13;;;28.40;42.44
6024;BME280;3040;42.654;23.296;2023-08-30T07:29:48;93286.88;;;27.29;41.77
6024;BME280;3040;42.654;23.296;2023-08-30T07:32:15;93464.97;;;28.43;42.06
6024;BME280;3040;42.654;23.296;2023-08-30T07:34:42;93368.44;;;27.12;42.57
6024;BME280;3040;42.654;23.296;2023-08-30T07:37:17;93473.63;;;28.27;43.01
6024;BME280;3040;42.654;23.296;2023-08-30T07:39:45;93477.91;;;28.72;41.86
6024;BME280;3040;42.654;23.296;2023-08-30T07:42:13;93461.94;;;29.00;40.82
6024;BME280;3040;42.654;23.296;2023-08-30T07:44:41;93459.44;;;29.31;40.24
6024;BME280;3040;42.654;23.296;2023-08-30T07:47:08;93431.78;;;29.29;39.80
6024;BME280;3040;42.654;23.296;2023-08-30T07:49:35;93444.03;;;29.48;39.74
6024;BME280;3040;42.654;23.296;2023-08-30T07:52:02;93409.09;;;29.43;40.22
6024;BME280;3040;42.654;23.296;2023-08-30T07:54:30;93310.72;;;29.05;38.69
6024;BME280;3040;42.654;23.296;2023-08-30T07:56:57;93456.13;;;29.97;38.30
6024;BME280;3040;42.654;23.296;2023-08-30T07:59:24;93461.47;;;29.66;38.54
6024;BME280;3040;42.654;23.296;2023-08-30T08:01:52;93469.03;;;29.56;37.01
6024;BME280;3040;42.654;23.296;2023-08-30T08:04:19;93473.22;;;29.51;36.70
6024;BME280;3040;42.654;23.296;2023-08-30T08:06:45;93462.69;;;29.15;37.13
6024;BME280;3040;42.654;23.296;2023-08-30T08:09:12;93468.53;;;29.23;37.52
6024;BME280;3040;42.654;23.296;2023-08-30T08:11:39;93465.69;;;29.46;36.05
6024;BME280;3040;42.654;23.296;2023-08-30T08:14:09;93472.69;;;29.47;36.11
6024;BME280;3040;42.654;23.296;2023-08-30T08:16:36;93430.38;;;29.19;36.24
6024;BME280;3040;42.654;23.296;2023-08-30T08:19:04;93476.84;;;29.28;36.82
6024;BME280;3040;42.654;23.296;2023-08-30T08:21:32;93478.69;;;29.51;36.44
6024;BME280;3040;42.654;23.296;2023-08-30T08:23:59;93479.25;;;29.56;34.80
6024;BME280;3040;42.654;23.296;2023-08-30T08:26:25;93482.13;;;29.67;35.67
6024;BME280;3040;42.654;23.296;2023-08-30T08:28:53;93474.75;;;29.73;34.49
6024;BME280;3040;42.654;23.296;2023-08-30T08:31:20;93454.13;;;29.77;35.11
6024;BME280;3040;42.654;23.296;2023-08-30T08:33:50;93476.72;;;30.07;35.07
6024;BME280;3040;42.654;23.296;2023-08-30T08:36:18;93480.00;;;29.91;36.05
6024;BME280;3040;42.654;23.296;2023-08-30T08:38:45;93456.88;;;29.42;36.95
6024;BME280;3040;42.654;23.296;2023-08-30T08:41:14;93481.97;;;29.35;37.18
6024;BME280;3040;42.654;23.296;2023-08-30T08:43:42;93478.59;;;29.81;36.99
6024;BME280;3040;42.654;23.296;2023-08-30T08:46:09;93345.91;;;29.32;36.15
6024;BME280;3040;42.654;23.296;2023-08-30T08:48:40;93474.22;;;30.50;35.86
6024;BME280;3040;42.654;23.296;2023-08-30T08:51:09;93477.66;;;30.24;35.35
6024;BME280;3040;42.654;23.296;2023-08-30T08:53:38;93470.25;;;30.30;35.94
6024;BME280;3040;42.654;23.296;2023-08-30T08:56:06;93471.59;;;30.41;36.51
6024;BME280;3040;42.654;23.296;2023-08-30T08:58:35;93469.31;;;30.85;35.39
6024;BME280;3040;42.654;23.296;2023-08-30T09:01:03;93465.31;;;31.12;34.68
6024;BME280;3040;42.654;23.296;2023-08-30T09:03:32;93466.34;;;30.63;35.83
6024;BME280;3040;42.654;23.296;2023-08-30T09:06:01;93462.31;;;30.58;34.89
6024;BME280;3040;42.654;23.296;2023-08-30T09:08:29;93470.72;;;30.49;36.28
6024;BME280;3040;42.654;23.296;2023-08-30T09:10:57;93464.13;;;30.21;37.08
6024;BME280;3040;42.654;23.296;2023-08-30T09:13:24;93414.19;;;29.71;36.73
6024;BME280;3040;42.654;23.296;2023-08-30T09:15:51;93459.94;;;29.65;37.16
6024;BME280;3040;42.654;23.296;2023-08-30T09:18:18;93460.53;;;30.09;37.94
6024;BME280;3040;42.654;23.296;2023-08-30T09:20:45;93446.19;;;30.46;36.43
6024;BME280;3040;42.654;23.296;2023-08-30T09:23:18;93421.88;;;31.10;34.62
6024;BME280;3040;42.654;23.296;2023-08-30T09:25:46;93442.09;;;30.56;34.88
6024;BME280;3040;42.654;23.296;2023-08-30T09:28:14;93434.94;;;29.77;36.86
6024;BME280;3040;42.654;23.296;2023-08-30T09:30:41;93318.38;;;29.21;36.24
6024;BME280;3040;42.654;23.296;2023-08-30T09:33:07;93424.72;;;29.23;37.51
6024;BME280;3040;42.654;23.296;2023-08-30T09:35:43;93455.53;;;29.03;37.36
6024;BME280;3040;42.654;23.296;2023-08-30T09:38:16;93464.25;;;28.87;37.18
6024;BME280;3040;42.654;23.296;2023-08-30T09:40:43;93452.88;;;29.08;36.72
6024;BME280;3040;42.654;23.296;2023-08-30T09:43:10;93466.28;;;28.48;37.31
6024;BME280;3040;42.654;23.296;2023-08-30T09:45:39;93461.75;;;27.26;40.99
6024;BME280;3040;42.654;23.296;2023-08-30T09:48:07;93455.66;;;27.87;40.69
6024;BME280;3040;42.654;23.296;2023-08-30T09:50:34;93445.28;;;28.15;41.02
6024;BME280;3040;42.654;23.296;2023-08-30T09:53:05;93423.81;;;29.11;37.90
6024;BME280;3040;42.654;23.296;2023-08-30T09:55:33;93444.38;;;29.21;38.32
6024;BME280;3040;42.654;23.296;2023-08-30T09:58:02;93429.25;;;29.26;38.11
6024;BME280;3040;42.654;23.296;2023-08-30T10:00:30;93433.38;;;29.36;36.95
6024;BME280;3040;42.654;23.296;2023-08-30T10:02:59;93434.19;;;29.77;36.88
6024;BME280;3040;42.654;23.296;2023-08-30T10:05:27;93425.69;;;29.75;35.80
6024;BME280;3040;42.654;23.296;2023-08-30T10:07:54;93429.88;;;28.71;37.54
6024;BME280;3040;42.654;23.296;2023-08-30T10:10:22;93429.84;;;29.15;37.17
6024;BME280;3040;42.654;23.296;2023-08-30T10:12:49;93429.25;;;29.61;36.32
6024;BME280;3040;42.654;23.296;2023-08-30T10:15:16;93428.19;;;28.73;37.40
6024;BME280;3040;42.654;23.296;2023-08-30T10:17:45;93389.91;;;27.67;39.37
6024;BME280;3040;42.654;23.296;2023-08-30T10:20:14;93427.25;;;27.70;39.87
6024;BME280;3040;42.654;23.296;2023-08-30T10:22:42;93428.19;;;28.06;40.06
6024;BME280;3040;42.654;23.296;2023-08-30T10:25:12;93421.75;;;28.47;39.74
6024;BME280;3040;42.654;23.296;2023-08-30T10:27:43;93421.56;;;28.36;39.54
6024;BME280;3040;42.654;23.296;2023-08-30T10:30:12;93404.97;;;28.54;38.62
6024;BME280;3040;42.654;23.296;2023-08-30T10:32:40;93430.81;;;28.53;37.83
6024;BME280;3040;42.654;23.296;2023-08-30T10:35:10;93421.72;;;28.18;38.57
6024;BME280;3040;42.654;23.296;2023-08-30T10:37:39;93427.69;;;27.92;39.55
6024;BME280;3040;42.654;23.296;2023-08-30T10:40:07;93417.78;;;28.48;39.32
6024;BME280;3040;42.654;23.296;2023-08-30T10:42:34;93415.72;;;28.72;37.97
6024;BME280;3040;42.654;23.296;2023-08-30T10:45:04;93414.97;;;28.87;38.83
6024;BME280;3040;42.654;23.296;2023-08-30T10:47:34;93413.44;;;28.71;36.51
6024;BME280;3040;42.654;23.296;2023-08-30T10:50:05;93406.09;;;28.62;36.76
6024;BME280;3040;42.654;23.296;2023-08-30T10:52:32;93397.72;;;27.83;37.69
6024;BME280;3040;42.654;23.296;2023-08-30T10:55:07;93383.63;;;28.58;37.33
6024;BME280;3040;42.654;23.296;2023-08-30T10:57:34;93399.88;;;28.91;36.05
6024;BME280;3040;42.654;23.296;2023-08-30T11:00:06;93406.03;;;29.21;36.12
6024;BME280;3040;42.654;23.296;2023-08-30T11:02:34;93406.50;;;29.54;35.75
6024;BME280;3040;42.654;23.296;2023-08-30T11:05:02;93405.59;;;29.08;35.40
6024;BME280;3040;42.654;23.296;2023-08-30T11:07:29;93352.34;;;28.45;36.27
6024;BME280;3040;42.654;23.296;2023-08-30T11:09:57;93401.78;;;29.55;35.20
6024;BME280;3040;42.654;23.296;2023-08-30T11:12:25;93398.38;;;30.26;33.66
6024;BME280;3040;42.654;23.296;2023-08-30T11:14:52;93368.25;;;30.58;32.46
6024;BME280;3040;42.654;23.296;2023-08-30T11:17:20;93394.78;;;30.66;32.84
6024;BME280;3040;42.654;23.296;2023-08-30T11:19:51;93392.50;;;28.83;34.40
6024;BME280;3040;42.654;23.296;2023-08-30T11:22:23;93385.47;;;29.11;34.18
6024;BME280;3040;42.654;23.296;2023-08-30T11:24:50;93378.78;;;29.32;34.16
6024;BME280;3040;42.654;23.296;2023-08-30T11:27:18;93377.59;;;28.84;34.26
6024;BME280;3040;42.654;23.296;2023-08-30T11:29:46;93375.75;;;29.30;34.09
6024;BME280;3040;42.654;23.296;2023-08-30T11:32:13;93368.41;;;29.77;31.84
6024;BME280;3040;42.654;23.296;2023-08-30T11:34:40;93345.44;;;30.20;30.56
6024;BME280;3040;42.654;23.296;2023-08-30T11:37:07;93357.16;;;29.54;31.65
6024;BME280;3040;42.654;23.296;2023-08-30T11:39:34;93342.50;;;29.78;30.57
6024;BME280;3040;42.654;23.296;2023-08-30T11:42:03;93352.84;;;30.66;30.30
6024;BME280;3040;42.654;23.296;2023-08-30T11:44:31;93354.72;;;31.17;28.50
6024;BME280;3040;42.654;23.296;2023-08-30T11:47:00;93359.22;;;30.52;29.83
6024;BME280;3040;42.654;23.296;2023-08-30T11:49:28;93328.28;;;30.51;29.39
6024;BME280;3040;42.654;23.296;2023-08-30T11:51:55;93345.78;;;31.22;27.95
6024;BME280;3040;42.654;23.296;2023-08-30T11:54:24;93344.84;;;31.42;28.08
6024;BME280;3040;42.654;23.296;2023-08-30T11:56:51;93349.88;;;30.38;29.51
6024;BME280;3040;42.654;23.296;2023-08-30T11:59:18;93344.03;;;30.56;28.97
6024;BME280;3040;42.654;23.296;2023-08-30T12:01:46;93345.53;;;30.89;29.37
6024;BME280;3040;42.654;23.296;2023-08-30T12:04:14;93323.78;;;30.85;28.87
6024;BME280;3040;42.654;23.296;2023-08-30T12:06:41;93339.41;;;31.53;27.75
6024;BME280;3040;42.654;23.296;2023-08-30T12:09:12;93332.25;;;30.82;27.82
6024;BME280;3040;42.654;23.296;2023-08-30T12:11:38;93334.84;;;30.33;28.52
6024;BME280;3040;42.654;23.296;2023-08-30T12:14:05;93323.63;;;30.31;28.43
6024;BME280;3040;42.654;23.296;2023-08-30T12:16:32;93331.56;;;30.29;28.66
6024;BME280;3040;42.654;23.296;2023-08-30T12:19:07;93339.13;;;31.40;27.06
6024;BME280;3040;42.654;23.296;2023-08-30T12:21:40;93316.16;;;32.52;26.36
6024;BME280;3040;42.654;23.296;2023-08-30T12:24:07;93313.16;;;32.95;25.29
6024;BME280;3040;42.654;23.296;2023-08-30T12:26:34;93322.16;;;32.17;24.45
6024;BME280;3040;42.654;23.296;2023-08-30T12:29:03;93311.47;;;30.75;26.99
6024;BME280;3040;42.654;23.296;2023-08-30T12:31:31;93325.09;;;30.58;27.43
6024;BME280;3040;42.654;23.296;2023-08-30T12:33:58;93303.63;;;30.00;28.10
6024;BME280;3040;42.654;23.296;2023-08-30T12:36:24;93291.06;;;29.27;28.03
6024;BME280;3040;42.654;23.296;2023-08-30T12:38:54;93307.03;;;30.20;30.97
6024;BME280;3040;42.654;23.296;2023-08-30T12:41:21;93295.94;;;30.61;31.09
6024;BME280;3040;42.654;23.296;2023-08-30T12:43:49;93307.00;;;31.15;29.86
6024;BME280;3040;42.654;23.296;2023-08-30T12:46:16;93316.41;;;31.02;29.70
6024;BME280;3040;42.654;23.296;2023-08-30T12:48:43;93307.56;;;30.87;28.10
6024;BME280;3040;42.654;23.296;2023-08-30T12:51:10;93220.19;;;30.43;30.93
6024;BME280;3040;42.654;23.296;2023-08-30T12:53:38;93280.56;;;31.99;27.77
6024;BME280;3040;42.654;23.296;2023-08-30T12:56:07;93297.13;;;32.88;26.61
6024;BME280;3040;42.654;23.296;2023-08-30T12:58:33;93218.13;;;33.29;25.71
6024;BME280;3040;42.654;23.296;2023-08-30T13:01:00;93300.91;;;34.52;24.31
6024;BME280;3040;42.654;23.296;2023-08-30T13:03:27;93290.34;;;35.10;23.49
6024;BME280;3040;42.654;23.296;2023-08-30T13:05:54;93313.63;;;35.21;23.90
6024;BME280;3040;42.654;23.296;2023-08-30T13:08:21;93297.28;;;35.23;20.54
6024;BME280;3040;42.654;23.296;2023-08-30T13:10:49;93313.69;;;34.85;20.56
6024;BME280;3040;42.654;23.296;2023-08-30T13:13:17;93324.84;;;34.74;19.92
6024;BME280;3040;42.654;23.296;2023-08-30T13:15:43;93294.19;;;34.48;20.42